sensor_id;sensor_type;location;lat;lon;timestamp;pressure;altitude;pressure_sealevel;temperature;humidity
81033;BME280;70514;52.478;6.102;2023-06-04T00:02:21;102380.28;;;12.05;44.82
81033;BME280;70514;52.478;6.102;2023-06-04T00:04:47;102377.56;;;12.01;45.03
81033;BME280;70514;52.478;6.102;2023-06-04T00:07:12;102378.34;;;11.98;45.24
81033;BME280;70514;52.478;6.102;2023-06-04T00:09:37;102380.84;;;11.95;44.97
81033;BME280;70514;52.478;6.102;2023-06-04T00:12:03;102376.41;;;11.89;45.40
81033;BME280;70514;52.478;6.102;2023-06-04T00:14:28;102375.44;;;11.86;44.97
81033;BME280;70514;52.478;6.102;2023-06-04T00:16:54;102383.97;;;11.83;45.24
81033;BME280;70514;52.478;6.102;2023-06-04T00:19:19;102371.81;;;11.79;45.64
81033;BME280;70514;52.478;6.102;2023-06-04T00:21:45;102372.56;;;11.75;45.48
81033;BME280;70514;52.478;6.102;2023-06-04T00:24:10;102381.09;;;11.73;46.08
81033;BME280;70514;52.478;6.102;2023-06-04T00:26:37;102380.94;;;11.68;45.55
81033;BME280;70514;52.478;6.102;2023-06-04T00:29:03;102373.06;;;11.64;45.71
81033;BME280;70514;52.478;6.102;2023-06-04T00:31:28;102374.81;;;11.65;45.72
81033;BME280;70514;52.478;6.102;2023-06-04T00:33:53;102379.91;;;11.63;46.10
81033;BME280;70514;52.478;6.102;2023-06-04T00:36:19;102374.69;;;11.60;46.14
81033;BME280;70514;52.478;6.102;2023-06-04T00:38:45;102385.72;;;11.56;46.18
81033;BME280;70514;52.478;6.102;2023-06-04T00:41:11;102382.19;;;11.52;46.10
81033;BME280;70514;52.478;6.102;2023-06-04T00:43:36;102376.91;;;11.48;46.34
81033;BME280;70514;52.478;6.102;2023-06-04T00:46:02;102373.25;;;11.41;46.45
81033;BME280;70514;52.478;6.102;2023-06-04T00:48:30;102375.84;;;11.41;46.47
81033;BME280;70514;52.478;6.102;2023-06-04T00:50:57;102377.50;;;11.39;46.42
81033;BME280;70514;52.478;6.102;2023-06-04T00:53:24;102384.38;;;11.39;46.58
81033;BME280;70514;52.478;6.102;2023-06-04T00:55:50;102388.53;;;11.35;46.78
81033;BME280;70514;52.478;6.102;2023-06-04T00:58:16;102385.81;;;11.31;47.00
81033;BME280;70514;52.478;6.102;2023-06-04T01:00:43;102386.56;;;11.27;46.94
81033;BME280;70514;52.478;6.102;2023-06-04T01:03:19;102379.59;;;11.23;46.90
81033;BME280;70514;52.478;6.102;2023-06-04T01:05:59;102382.03;;;11.18;47.12
81033;BME280;70514;52.478;6.102;2023-06-04T01:08:26;102383.72;;;11.18;47.20
81033;BME280;70514;52.478;6.102;2023-06-04T01:10:55;102381.00;;;11.13;47.34
81033;BME280;70514;52.478;6.102;2023-06-04T01:13:21;102385.16;;;11.09;47.39
81033;BME280;70514;52.478;6.102;2023-06-04T01:15:47;102383.41;;;11.07;47.61
81033;BME280;70514;52.478;6.102;2023-06-04T01:18:15;102383.28;;;11.04;47.74
81033;BME280;70514;52.478;6.102;2023-06-04T01:21:06;102377.09;;;10.99;47.66
81033;BME280;70514;52.478;6.102;2023-06-04T01:23:47;102379.59;;;10.96;47.66
81033;BME280;70514;52.478;6.102;2023-06-04T01:26:15;102379.53;;;10.94;47.83
81033;BME280;70514;52.478;6.102;2023-06-04T01:28:40;102389.81;;;10.93;47.56
81033;BME280;70514;52.478;6.102;2023-06-04T01:31:06;102396.63;;;10.91;48.13
81033;BME280;70514;52.478;6.102;2023-06-04T01:33:34;102393.03;;;10.86;48.03
81033;BME280;70514;52.478;6.102;2023-06-04T01:35:59;102386.13;;;10.85;48.02
81033;BME280;70514;52.478;6.102;2023-06-04T01:38:26;102392.06;;;10.82;48.45
81033;BME280;70514;52.478;6.102;2023-06-04T01:40:51;102390.19;;;10.78;48.60
81033;BME280;70514;52.478;6.102;2023-06-04T01:43:21;102391.03;;;10.77;48.49
81033;BME280;70514;52.478;6.102;2023-06-04T01:45:47;102383.13;;;10.73;49.12
81033;BME280;70514;52.478;6.102;2023-06-04T01:48:13;102382.22;;;10.71;49.04
81033;BME280;70514;52.478;6.102;2023-06-04T01:50:38;102370.97;;;10.67;48.95
81033;BME280;70514;52.478;6.102;2023-06-04T01:53:03;102383.88;;;10.69;49.31
81033;BME280;70514;52.478;6.102;2023-06-04T01:55:29;102377.69;;;10.63;49.28
81033;BME280;70514;52.478;6.102;2023-06-04T01:57:58;102376.72;;;10.60;48.98
81033;BME280;70514;52.478;6.102;2023-06-04T02:00:24;102374.03;;;10.57;49.10
81033;BME280;70514;52.478;6.102;2023-06-04T02:02:51;102378.34;;;10.56;49.64
81033;BME280;70514;52.478;6.102;2023-06-04T02:05:17;102383.38;;;10.53;49.52
81033;BME280;70514;52.478;6.102;2023-06-04T02:07:44;102378.94;;;10.49;49.78
81033;BME280;70514;52.478;6.102;2023-06-04T02:10:18;102387.44;;;10.47;50.13
81033;BME280;70514;52.478;6.102;2023-06-04T02:13:01;102377.09;;;10.45;49.93
81033;BME280;70514;52.478;6.102;2023-06-04T02:15:30;102380.56;;;10.47;49.98
81033;BME280;70514;52.478;6.102;2023-06-04T02:18:11;102383.00;;;10.43;50.15
81033;BME280;70514;52.478;6.102;2023-06-04T02:20:47;102381.25;;;10.42;50.83
81033;BME280;70514;52.478;6.102;2023-06-04T02:23:14;102385.44;;;10.38;50.69
81033;BME280;70514;52.478;6.102;2023-06-04T02:25:40;102375.78;;;10.33;50.35
81033;BME280;70514;52.478;6.102;2023-06-04T02:28:06;102376.53;;;10.29;51.05
81033;BME280;70514;52.478;6.102;2023-06-04T02:30:32;102380.78;;;10.28;51.30
81033;BME280;70514;52.478;6.102;2023-06-04T02:32:57;102378.13;;;10.25;50.74
81033;BME280;70514;52.478;6.102;2023-06-04T02:35:26;102388.44;;;10.27;51.10
81033;BME280;70514;52.478;6.102;2023-06-04T02:37:52;102396.09;;;10.23;51.54
81033;BME280;70514;52.478;6.102;2023-06-04T02:40:17;102387.31;;;10.18;51.38
81033;BME280;70514;52.478;6.102;2023-06-04T02:42:43;102384.56;;;10.14;51.41
81033;BME280;70514;52.478;6.102;2023-06-04T02:45:11;102396.44;;;10.10;52.08
81033;BME280;70514;52.478;6.102;2023-06-04T02:47:36;102388.63;;;10.07;51.80
81033;BME280;70514;52.478;6.102;2023-06-04T02:50:02;102384.25;;;10.05;52.10
81033;BME280;70514;52.478;6.102;2023-06-04T02:52:28;102382.34;;;9.99;51.91
81033;BME280;70514;52.478;6.102;2023-06-04T02:54:55;102378.59;;;9.91;52.37
81033;BME280;70514;52.478;6.102;2023-06-04T02:57:21;102384.75;;;9.95;52.97
81033;BME280;70514;52.478;6.102;2023-06-04T02:59:46;102378.59;;;9.91;52.30
81033;BME280;70514;52.478;6.102;2023-06-04T03:02:11;102383.00;;;9.94;52.12
81033;BME280;70514;52.478;6.102;2023-06-04T03:04:37;102376.03;;;9.91;52.56
81033;BME280;70514;52.478;6.102;2023-06-04T03:07:03;102379.47;;;9.92;52.92
81033;BME280;70514;52.478;6.102;2023-06-04T03:09:32;102382.03;;;9.92;53.26
81033;BME280;70514;52.478;6.102;2023-06-04T03:12:02;102368.22;;;9.88;53.07
81033;BME280;70514;52.478;6.102;2023-06-04T03:14:28;102373.38;;;9.90;53.51
81033;BME280;70514;52.478;6.102;2023-06-04T03:17:00;102369.97;;;9.89;53.23
81033;BME280;70514;52.478;6.102;2023-06-04T03:19:40;102377.63;;;9.88;53.55
81033;BME280;70514;52.478;6.102;2023-06-04T03:22:07;102382.75;;;9.88;53.80
81033;BME280;70514;52.478;6.102;2023-06-04T03:24:39;102380.06;;;9.85;53.79
81033;BME280;70514;52.478;6.102;2023-06-04T03:27:05;102383.50;;;9.85;53.60
81033;BME280;70514;52.478;6.102;2023-06-04T03:29:34;102379.97;;;9.81;54.35
81033;BME280;70514;52.478;6.102;2023-06-04T03:32:01;102377.38;;;9.81;54.03
81033;BME280;70514;52.478;6.102;2023-06-04T03:34:27;102372.34;;;9.85;53.85
81033;BME280;70514;52.478;6.102;2023-06-04T03:36:53;102371.59;;;9.87;54.51
81033;BME280;70514;52.478;6.102;2023-06-04T03:39:18;102374.91;;;9.85;54.23
81033;BME280;70514;52.478;6.102;2023-06-04T03:41:44;102369.84;;;9.86;54.10
81033;BME280;70514;52.478;6.102;2023-06-04T03:44:12;102376.84;;;9.90;54.20
81033;BME280;70514;52.478;6.102;2023-06-04T03:46:38;102372.56;;;9.91;54.38
81033;BME280;70514;52.478;6.102;2023-06-04T03:49:03;102383.00;;;9.94;54.44
81033;BME280;70514;52.478;6.102;2023-06-04T03:51:28;102377.84;;;9.94;55.01
81033;BME280;70514;52.478;6.102;2023-06-04T03:53:54;102374.47;;;9.96;54.83
81033;BME280;70514;52.478;6.102;2023-06-04T03:56:20;102370.28;;;9.98;54.77
81033;BME280;70514;52.478;6.102;2023-06-04T03:58:46;102372.13;;;10.02;54.67
81033;BME280;70514;52.478;6.102;2023-06-04T04:01:12;102375.59;;;10.03;54.80
81033;BME280;70514;52.478;6.102;2023-06-04T04:03:37;102371.31;;;10.03;55.19
81033;BME280;70514;52.478;6.102;2023-06-04T04:06:02;102368.81;;;10.05;54.66
81033;BME280;70514;52.478;6.102;2023-06-04T04:08:28;102371.53;;;10.09;55.11
81033;BME280;70514;52.478;6.102;2023-06-04T04:10:57;102370.75;;;10.12;55.27
81033;BME280;70514;52.478;6.102;2023-06-04T04:13:23;102354.41;;;10.10;55.20
81033;BME280;70514;52.478;6.102;2023-06-04T04:15:48;102365.78;;;10.16;55.22
81033;BME280;70514;52.478;6.102;2023-06-04T04:18:18;102367.63;;;10.19;55.32
81033;BME280;70514;52.478;6.102;2023-06-04T04:20:48;102359.97;;;10.22;55.60
81033;BME280;70514;52.478;6.102;2023-06-04T04:23:13;102364.53;;;10.29;54.69
81033;BME280;70514;52.478;6.102;2023-06-04T04:25:39;102362.16;;;10.35;54.77
81033;BME280;70514;52.478;6.102;2023-06-04T04:28:04;102365.66;;;10.37;54.67
81033;BME280;70514;52.478;6.102;2023-06-04T04:30:34;102361.44;;;10.39;54.86
81033;BME280;70514;52.478;6.102;2023-06-04T04:33:01;102365.84;;;10.43;55.64
81033;BME280;70514;52.478;6.102;2023-06-04T04:35:26;102365.09;;;10.46;55.32
81033;BME280;70514;52.478;6.102;2023-06-04T04:37:53;102370.41;;;10.50;55.27
81033;BME280;70514;52.478;6.102;2023-06-04T04:40:19;102377.47;;;10.57;55.56
81033;BME280;70514;52.478;6.102;2023-06-04T04:42:44;102377.69;;;10.63;55.87
81033;BME280;70514;52.478;6.102;2023-06-04T04:45:10;102383.13;;;10.73;55.75
81033;BME280;70514;52.478;6.102;2023-06-04T04:47:35;102379.13;;;10.81;55.74
81033;BME280;70514;52.478;6.102;2023-06-04T04:50:00;102368.34;;;10.92;55.66
81033;BME280;70514;52.478;6.102;2023-06-04T04:52:26;102373.84;;;11.04;55.75
81033;BME280;70514;52.478;6.102;2023-06-04T04:54:51;102378.59;;;11.19;55.89
81033;BME280;70514;52.478;6.102;2023-06-04T04:57:21;102372.38;;;11.41;55.59
81033;BME280;70514;52.478;6.102;2023-06-04T04:59:46;102377.75;;;11.77;54.91
81033;BME280;70514;52.478;6.102;2023-06-04T05:02:12;102376.69;;;12.31;54.29
81033;BME280;70514;52.478;6.102;2023-06-04T05:04:37;102379.84;;;12.90;53.60
81033;BME280;70514;52.478;6.102;2023-06-04T05:07:03;102378.56;;;13.46;52.78
81033;BME280;70514;52.478;6.102;2023-06-04T05:09:28;102371.09;;;14.05;52.28
81033;BME280;70514;52.478;6.102;2023-06-04T05:11:53;102373.75;;;14.56;52.06
81033;BME280;70514;52.478;6.102;2023-06-04T05:14:19;102373.56;;;14.97;52.02
81033;BME280;70514;52.478;6.102;2023-06-04T05:16:44;102385.41;;;15.38;51.57
81033;BME280;70514;52.478;6.102;2023-06-04T05:19:10;102375.44;;;15.68;51.64
81033;BME280;70514;52.478;6.102;2023-06-04T05:21:36;102375.63;;;15.85;51.88
81033;BME280;70514;52.478;6.102;2023-06-04T05:24:02;102374.16;;;16.10;51.93
81033;BME280;70514;52.478;6.102;2023-06-04T05:26:27;102375.25;;;16.33;52.04
81033;BME280;70514;52.478;6.102;2023-06-04T05:28:53;102374.59;;;16.55;51.35
81033;BME280;70514;52.478;6.102;2023-06-04T05:31:19;102375.66;;;16.80;51.68
81033;BME280;70514;52.478;6.102;2023-06-04T05:33:44;102383.75;;;17.18;51.07
81033;BME280;70514;52.478;6.102;2023-06-04T05:36:10;102380.47;;;17.56;50.75
81033;BME280;70514;52.478;6.102;2023-06-04T05:38:35;102369.28;;;17.75;50.42
81033;BME280;70514;52.478;6.102;2023-06-04T05:41:01;102367.53;;;17.74;50.72
81033;BME280;70514;52.478;6.102;2023-06-04T05:43:27;102374.50;;;17.81;51.00
81033;BME280;70514;52.478;6.102;2023-06-04T05:45:52;102370.16;;;17.88;51.12
81033;BME280;70514;52.478;6.102;2023-06-04T05:48:18;102364.97;;;17.98;51.18
81033;BME280;70514;52.478;6.102;2023-06-04T05:50:43;102358.94;;;18.30;50.68
81033;BME280;70514;52.478;6.102;2023-06-04T05:53:09;102374.63;;;18.52;50.31
81033;BME280;70514;52.478;6.102;2023-06-04T05:55:34;102372.91;;;18.66;49.90
81033;BME280;70514;52.478;6.102;2023-06-04T05:58:00;102377.19;;;18.25;51.35
81033;BME280;70514;52.478;6.102;2023-06-04T06:00:25;102382.19;;;17.51;52.85
81033;BME280;70514;52.478;6.102;2023-06-04T06:02:51;102386.19;;;16.97;53.63
81033;BME280;70514;52.478;6.102;2023-06-04T06:05:18;102386.66;;;16.49;54.44
81033;BME280;70514;52.478;6.102;2023-06-04T06:07:45;102389.06;;;16.29;54.34
81033;BME280;70514;52.478;6.102;2023-06-04T06:10:10;102386.56;;;16.37;53.56
81033;BME280;70514;52.478;6.102;2023-06-04T06:12:36;102378.75;;;16.37;53.39
81033;BME280;70514;52.478;6.102;2023-06-04T06:15:02;102389.06;;;16.26;53.84
81033;BME280;70514;52.478;6.102;2023-06-04T06:17:27;102384.50;;;16.05;54.08
81033;BME280;70514;52.478;6.102;2023-06-04T06:19:53;102393.00;;;15.89;54.25
81033;BME280;70514;52.478;6.102;2023-06-04T06:22:19;102391.94;;;15.73;54.14
81033;BME280;70514;52.478;6.102;2023-06-04T06:24:44;102389.16;;;15.60;54.11
81033;BME280;70514;52.478;6.102;2023-06-04T06:27:10;102388.06;;;15.44;53.97
81033;BME280;70514;52.478;6.102;2023-06-04T06:29:36;102388.84;;;15.37;53.84
81033;BME280;70514;52.478;6.102;2023-06-04T06:32:02;102393.13;;;15.35;53.72
81033;BME280;70514;52.478;6.102;2023-06-04T06:34:27;102390.44;;;15.27;53.43
81033;BME280;70514;52.478;6.102;2023-06-04T06:36:53;102397.28;;;15.22;53.41
81033;BME280;70514;52.478;6.102;2023-06-04T06:39:18;102395.50;;;15.20;53.38
81033;BME280;70514;52.478;6.102;2023-06-04T06:41:45;102400.75;;;15.23;53.09
81033;BME280;70514;52.478;6.102;2023-06-04T06:44:10;102406.81;;;15.25;52.85
81033;BME280;70514;52.478;6.102;2023-06-04T06:46:37;102400.75;;;15.23;52.84
81033;BME280;70514;52.478;6.102;2023-06-04T06:49:02;102401.63;;;15.25;52.81
81033;BME280;70514;52.478;6.102;2023-06-04T06:51:28;102405.13;;;15.28;52.28
81033;BME280;70514;52.478;6.102;2023-06-04T06:53:53;102403.47;;;15.32;52.37
81033;BME280;70514;52.478;6.102;2023-06-04T06:56:19;102416.50;;;15.37;52.62
81033;BME280;70514;52.478;6.102;2023-06-04T06:58:44;102398.41;;;15.41;52.14
81033;BME280;70514;52.478;6.102;2023-06-04T07:01:10;102408.13;;;15.53;51.90
81033;BME280;70514;52.478;6.102;2023-06-04T07:03:36;102395.22;;;15.60;51.61
81033;BME280;70514;52.478;6.102;2023-06-04T07:06:03;102404.00;;;15.70;51.53
81033;BME280;70514;52.478;6.102;2023-06-04T07:08:29;102401.53;;;15.79;51.31
81033;BME280;70514;52.478;6.102;2023-06-04T07:10:54;102406.78;;;15.84;51.34
81033;BME280;70514;52.478;6.102;2023-06-04T07:13:20;102410.28;;;15.87;51.22
81033;BME280;70514;52.478;6.102;2023-06-04T07:15:45;102411.16;;;15.91;51.21
81033;BME280;70514;52.478;6.102;2023-06-04T07:18:11;102413.88;;;15.98;51.18
81033;BME280;70514;52.478;6.102;2023-06-04T07:20:36;102414.81;;;16.05;50.91
81033;BME280;70514;52.478;6.102;2023-06-04T07:23:01;102411.41;;;16.09;50.78
81033;BME280;70514;52.478;6.102;2023-06-04T07:25:27;102420.97;;;16.13;50.87
81033;BME280;70514;52.478;6.102;2023-06-04T07:27:52;102408.88;;;16.18;50.53
81033;BME280;70514;52.478;6.102;2023-06-04T07:30:17;102405.47;;;16.22;50.72
81033;BME280;70514;52.478;6.102;2023-06-04T07:32:50;102408.06;;;16.24;50.43
81033;BME280;70514;52.478;6.102;2023-06-04T07:35:15;102409.03;;;16.32;50.38
81033;BME280;70514;52.478;6.102;2023-06-04T07:37:41;102425.59;;;16.41;50.35
81033;BME280;70514;52.478;6.102;2023-06-04T07:40:09;102414.38;;;16.45;50.34
81033;BME280;70514;52.478;6.102;2023-06-04T07:42:35;102418.75;;;16.51;49.90
81033;BME280;70514;52.478;6.102;2023-06-04T07:45:01;102419.72;;;16.59;49.82
81033;BME280;70514;52.478;6.102;2023-06-04T07:47:27;102419.78;;;16.65;49.65
81033;BME280;70514;52.478;6.102;2023-06-04T07:49:52;102424.13;;;16.69;49.70
81033;BME280;70514;52.478;6.102;2023-06-04T07:52:18;102418.94;;;16.68;49.76
81033;BME280;70514;52.478;6.102;2023-06-04T07:54:43;102414.66;;;16.73;49.66
81033;BME280;70514;52.478;6.102;2023-06-04T07:57:08;102423.38;;;16.78;49.05
81033;BME280;70514;52.478;6.102;2023-06-04T07:59:34;102424.25;;;16.81;49.45
81033;BME280;70514;52.478;6.102;2023-06-04T08:01:59;102426.03;;;16.87;49.10
81033;BME280;70514;52.478;6.102;2023-06-04T08:04:25;102430.44;;;16.94;48.88
81033;BME280;70514;52.478;6.102;2023-06-04T08:06:51;102427.84;;;16.97;49.07
81033;BME280;70514;52.478;6.102;2023-06-04T08:09:17;102427.88;;;17.02;48.92
81033;BME280;70514;52.478;6.102;2023-06-04T08:11:42;102422.69;;;17.06;49.10
81033;BME280;70514;52.478;6.102;2023-06-04T08:14:12;102422.72;;;17.11;48.58
81033;BME280;70514;52.478;6.102;2023-06-04T08:16:39;102424.47;;;17.12;48.44
81033;BME280;70514;52.478;6.102;2023-06-04T08:19:06;102434.06;;;17.20;48.47
81033;BME280;70514;52.478;6.102;2023-06-04T08:21:32;102434.97;;;17.22;48.43
81033;BME280;70514;52.478;6.102;2023-06-04T08:23:58;102433.28;;;17.30;48.54
81033;BME280;70514;52.478;6.102;2023-06-04T08:26:24;102433.34;;;17.39;48.32
81033;BME280;70514;52.478;6.102;2023-06-04T08:28:51;102429.91;;;17.48;48.08
81033;BME280;70514;52.478;6.102;2023-06-04T08:31:16;102429.94;;;17.54;47.68
81033;BME280;70514;52.478;6.102;2023-06-04T08:33:42;102429.16;;;17.67;47.48
81033;BME280;70514;52.478;6.102;2023-06-04T08:36:08;102427.47;;;17.75;47.41
81033;BME280;70514;52.478;6.102;2023-06-04T08:38:34;102428.34;;;17.83;46.84
81033;BME280;70514;52.478;6.102;2023-06-04T08:41:09;102422.28;;;17.88;46.81
81033;BME280;70514;52.478;6.102;2023-06-04T08:43:39;102420.59;;;17.99;46.82
81033;BME280;70514;52.478;6.102;2023-06-04T08:46:05;102419.75;;;18.03;46.52
81033;BME280;70514;52.478;6.102;2023-06-04T08:48:34;102427.59;;;18.10;46.68
81033;BME280;70514;52.478;6.102;2023-06-04T08:51:01;102413.72;;;18.17;46.43
81033;BME280;70514;52.478;6.102;2023-06-04T08:53:27;102426.75;;;18.23;46.16
81033;BME280;70514;52.478;6.102;2023-06-04T08:55:53;102427.59;;;18.24;46.13
81033;BME280;70514;52.478;6.102;2023-06-04T08:58:19;102424.16;;;18.28;46.17
81033;BME280;70514;52.478;6.102;2023-06-04T09:00:45;102426.78;;;18.36;46.17
81033;BME280;70514;52.478;6.102;2023-06-04T09:03:10;102425.06;;;18.44;45.77
81033;BME280;70514;52.478;6.102;2023-06-04T09:05:39;102431.13;;;18.41;45.81
81033;BME280;70514;52.478;6.102;2023-06-04T09:08:08;102424.19;;;18.46;45.55
81033;BME280;70514;52.478;6.102;2023-06-04T09:10:37;102416.34;;;18.45;45.72
81033;BME280;70514;52.478;6.102;2023-06-04T09:13:03;102421.56;;;18.51;45.48
81033;BME280;70514;52.478;6.102;2023-06-04T09:15:31;102423.34;;;18.56;45.56
81033;BME280;70514;52.478;6.102;2023-06-04T09:17:57;102433.78;;;18.61;45.59
81033;BME280;70514;52.478;6.102;2023-06-04T09:20:23;102424.22;;;18.72;45.08
81033;BME280;70514;52.478;6.102;2023-06-04T09:22:49;102431.19;;;18.82;44.93
81033;BME280;70514;52.478;6.102;2023-06-04T09:25:22;102418.13;;;18.91;44.77
81033;BME280;70514;52.478;6.102;2023-06-04T09:27:50;102424.22;;;19.01;44.71
81033;BME280;70514;52.478;6.102;2023-06-04T09:30:15;102425.94;;;19.08;44.35
81033;BME280;70514;52.478;6.102;2023-06-04T09:32:41;102417.25;;;19.10;44.25
81033;BME280;70514;52.478;6.102;2023-06-04T09:35:18;102426.81;;;19.12;44.49
81033;BME280;70514;52.478;6.102;2023-06-04T09:37:56;102420.72;;;19.14;44.21
81033;BME280;70514;52.478;6.102;2023-06-04T09:40:22;102420.69;;;19.17;44.30
81033;BME280;70514;52.478;6.102;2023-06-04T09:42:49;102428.53;;;19.20;44.46
81033;BME280;70514;52.478;6.102;2023-06-04T09:47:57;102422.44;;;19.30;43.96
81033;BME280;70514;52.478;6.102;2023-06-04T09:50:27;102419.81;;;19.30;44.09
81033;BME280;70514;52.478;6.102;2023-06-04T09:52:53;102421.56;;;19.31;43.60
81033;BME280;70514;52.478;6.102;2023-06-04T09:55:19;102421.53;;;19.34;43.95
81033;BME280;70514;52.478;6.102;2023-06-04T09:57:49;102423.28;;;19.43;43.57
81033;BME280;70514;52.478;6.102;2023-06-04T10:00:24;102422.41;;;19.51;43.60
81033;BME280;70514;52.478;6.102;2023-06-04T10:02:56;102413.66;;;19.59;43.52
81033;BME280;70514;52.478;6.102;2023-06-04T10:05:22;102418.00;;;19.67;43.29
81033;BME280;70514;52.478;6.102;2023-06-04T10:07:50;102416.25;;;19.65;43.37
81033;BME280;70514;52.478;6.102;2023-06-04T10:10:19;102421.50;;;19.63;43.21
81033;BME280;70514;52.478;6.102;2023-06-04T10:12:50;102418.88;;;19.68;43.24
81033;BME280;70514;52.478;6.102;2023-06-04T10:15:17;102424.06;;;19.72;42.80
81033;BME280;70514;52.478;6.102;2023-06-04T10:17:43;102422.31;;;19.76;42.69
81033;BME280;70514;52.478;6.102;2023-06-04T10:20:10;102422.31;;;19.77;42.43
81033;BME280;70514;52.478;6.102;2023-06-04T10:22:39;102426.63;;;19.81;42.26
81033;BME280;70514;52.478;6.102;2023-06-04T10:25:05;102423.16;;;19.79;42.62
81033;BME280;70514;52.478;6.102;2023-06-04T10:27:32;102424.03;;;19.81;42.32
81033;BME280;70514;52.478;6.102;2023-06-04T10:29:58;102424.88;;;19.86;42.11
81033;BME280;70514;52.478;6.102;2023-06-04T10:32:27;102428.31;;;19.91;42.23
81033;BME280;70514;52.478;6.102;2023-06-04T10:34:53;102421.34;;;19.95;41.75
81033;BME280;70514;52.478;6.102;2023-06-04T10:37:20;102423.03;;;20.01;41.93
81033;BME280;70514;52.478;6.102;2023-06-04T10:39:56;102416.91;;;20.09;41.79
81033;BME280;70514;52.478;6.102;2023-06-04T10:42:25;102430.84;;;20.11;41.36
81033;BME280;70514;52.478;6.102;2023-06-04T10:44:53;102421.25;;;20.12;41.66
81033;BME280;70514;52.478;6.102;2023-06-04T10:49:46;102423.75;;;20.27;40.97
81033;BME280;70514;52.478;6.102;2023-06-04T10:52:12;102417.66;;;20.35;40.60
81033;BME280;70514;52.478;6.102;2023-06-04T10:54:37;102412.41;;;20.37;40.58
81033;BME280;70514;52.478;6.102;2023-06-04T10:57:13;102408.03;;;20.41;40.29
81033;BME280;70514;52.478;6.102;2023-06-04T10:59:38;102414.03;;;20.56;40.45
81033;BME280;70514;52.478;6.102;2023-06-04T11:02:08;102413.94;;;20.62;39.96
81033;BME280;70514;52.478;6.102;2023-06-04T11:04:35;102406.09;;;20.64;40.28
81033;BME280;70514;52.478;6.102;2023-06-04T11:07:07;102412.16;;;20.70;39.78
81033;BME280;70514;52.478;6.102;2023-06-04T11:09:36;102411.22;;;20.76;39.67
81033;BME280;70514;52.478;6.102;2023-06-04T11:12:04;102410.41;;;20.72;39.99
81033;BME280;70514;52.478;6.102;2023-06-04T11:14:30;102421.69;;;20.76;39.92
81033;BME280;70514;52.478;6.102;2023-06-04T11:16:56;102419.03;;;20.81;39.73
81033;BME280;70514;52.478;6.102;2023-06-04T11:19:21;102411.19;;;20.82;39.74
81033;BME280;70514;52.478;6.102;2023-06-04T11:21:47;102411.19;;;20.82;39.45
81033;BME280;70514;52.478;6.102;2023-06-04T11:24:13;102404.16;;;20.84;39.55
81033;BME280;70514;52.478;6.102;2023-06-04T11:26:39;102397.13;;;20.92;39.36
81033;BME280;70514;52.478;6.102;2023-06-04T11:29:10;102403.25;;;20.90;39.48
81033;BME280;70514;52.478;6.102;2023-06-04T11:31:45;102398.06;;;20.84;39.76
81033;BME280;70514;52.478;6.102;2023-06-04T11:34:11;102398.88;;;20.89;39.61
81033;BME280;70514;52.478;6.102;2023-06-04T11:36:47;102406.66;;;20.98;39.17
81033;BME280;70514;52.478;6.102;2023-06-04T11:39:14;102400.50;;;21.02;39.53
81033;BME280;70514;52.478;6.102;2023-06-04T11:41:40;102398.75;;;21.02;39.00
81033;BME280;70514;52.478;6.102;2023-06-04T11:44:07;102392.66;;;20.99;39.35
81033;BME280;70514;52.478;6.102;2023-06-04T11:46:33;102380.50;;;20.95;38.89
81033;BME280;70514;52.478;6.102;2023-06-04T11:48:59;102385.69;;;20.99;38.70
81033;BME280;70514;52.478;6.102;2023-06-04T11:51:25;102385.63;;;21.07;38.56
81033;BME280;70514;52.478;6.102;2023-06-04T11:53:51;102390.81;;;21.10;38.50
81033;BME280;70514;52.478;6.102;2023-06-04T11:56:18;102389.06;;;21.10;38.33
81033;BME280;70514;52.478;6.102;2023-06-04T11:58:43;102386.50;;;21.06;38.05
81033;BME280;70514;52.478;6.102;2023-06-04T12:01:11;102387.34;;;21.08;38.76
81033;BME280;70514;52.478;6.102;2023-06-04T12:03:42;102381.22;;;21.09;38.23
81033;BME280;70514;52.478;6.102;2023-06-04T12:06:18;102377.75;;;21.05;38.08
81033;BME280;70514;52.478;6.102;2023-06-04T12:08:52;102378.59;;;21.10;38.43
81033;BME280;70514;52.478;6.102;2023-06-04T12:11:31;102374.16;;;21.20;37.79
81033;BME280;70514;52.478;6.102;2023-06-04T12:14:03;102369.72;;;21.27;37.59
81033;BME280;70514;52.478;6.102;2023-06-04T12:16:29;102371.41;;;21.31;37.89
81033;BME280;70514;52.478;6.102;2023-06-04T12:19:07;102374.88;;;21.34;37.63
81033;BME280;70514;52.478;6.102;2023-06-04T12:21:34;102373.97;;;21.35;37.28
81033;BME280;70514;52.478;6.102;2023-06-04T12:24:10;102360.91;;;21.32;37.65
81033;BME280;70514;52.478;6.102;2023-06-04T12:26:36;102358.25;;;21.35;37.20
81033;BME280;70514;52.478;6.102;2023-06-04T12:29:16;102357.34;;;21.39;37.40
81033;BME280;70514;52.478;6.102;2023-06-04T12:31:43;102372.97;;;21.45;37.14
81033;BME280;70514;52.478;6.102;2023-06-04T12:34:10;102372.97;;;21.47;36.66
81033;BME280;70514;52.478;6.102;2023-06-04T12:36:37;102365.16;;;21.44;36.87
81033;BME280;70514;52.478;6.102;2023-06-04T12:39:04;102363.34;;;21.47;36.59
81033;BME280;70514;52.478;6.102;2023-06-04T12:41:32;102363.34;;;21.47;36.53
81033;BME280;70514;52.478;6.102;2023-06-04T12:43:59;102364.22;;;21.49;36.59
81033;BME280;70514;52.478;6.102;2023-06-04T12:46:25;102363.22;;;21.56;36.61
81033;BME280;70514;52.478;6.102;2023-06-04T12:48:51;102371.94;;;21.60;36.50
81033;BME280;70514;52.478;6.102;2023-06-04T12:51:16;102360.59;;;21.59;36.29
81033;BME280;70514;52.478;6.102;2023-06-04T12:53:42;102357.91;;;21.61;36.01
81033;BME280;70514;52.478;6.102;2023-06-04T12:56:08;102360.50;;;21.66;35.98